Time;durP1;ratioP1;P1;durP2;ratioP2;P2;SDS_P1;SDS_P2;PMS_P1;PMS_P2;Temp;Humidity;BMP_temperature;BMP_pressure;BME280_temperature;BME280_humidity;BME280_pressure;Samples;Min_cycle;Max_cycle;Signal;HPM_P1;HPM_P2
2021/01/01 00:01:34;;;;;;;372.90;150.90;;;1.00;99.90;;;;;;5014405;28;20494;-62
2021/01/01 00:04:00;;;;;;;371.05;148.88;;;0.90;99.90;;;;;;5018498;28;20033;-63
2021/01/01 00:06:25;;;;;;;368.13;148.32;;;1.00;99.90;;;;;;5020240;28;20037;-61
2021/01/01 00:08:51;;;;;;;380.00;154.82;;;0.90;99.90;;;;;;5018688;28;20042;-61
2021/01/01 00:11:17;;;;;;;396.02;162.13;;;0.80;99.90;;;;;;5017090;28;20141;-62
2021/01/01 00:13:43;;;;;;;496.70;225.60;;;0.80;99.90;;;;;;5018354;28;20259;-62
2021/01/01 00:16:15;;;;;;;506.30;242.48;;;0.80;99.90;;;;;;5019284;28;20364;-61
2021/01/01 00:18:42;;;;;;;559.30;261.73;;;0.80;99.90;;;;;;5016100;28;20095;-61
2021/01/01 00:21:08;;;;;;;579.95;282.27;;;0.80;99.90;;;;;;5017940;28;20399;-61
2021/01/01 00:23:34;;;;;;;553.60;265.42;;;0.70;99.90;;;;;;5020085;28;20065;-61
2021/01/01 00:26:00;;;;;;;506.52;236.23;;;0.70;99.90;;;;;;5019320;28;20068;-60
2021/01/01 00:28:25;;;;;;;488.08;223.30;;;0.60;99.90;;;;;;5019665;28;20037;-60
2021/01/01 00:30:52;;;;;;;465.85;206.27;;;0.60;99.90;;;;;;5018291;28;20513;-63
2021/01/01 00:33:18;;;;;;;430.17;192.30;;;0.60;99.90;;;;;;5017909;28;20029;-60
2021/01/01 00:35:43;;;;;;;434.55;184.57;;;0.60;99.90;;;;;;5017947;28;20466;-61
2021/01/01 00:38:09;;;;;;;388.27;161.68;;;0.50;99.90;;;;;;5015526;28;20061;-61
2021/01/01 00:40:35;;;;;;;357.55;145.77;;;0.50;99.90;;;;;;5019839;28;20104;-62
2021/01/01 00:43:01;;;;;;;312.63;126.30;;;0.50;99.90;;;;;;5016095;28;20042;-60
2021/01/01 00:45:26;;;;;;;310.02;119.78;;;0.50;99.90;;;;;;5016766;28;20061;-60
2021/01/01 00:47:52;;;;;;;297.30;116.18;;;0.40;99.90;;;;;;5017773;28;20034;-61
2021/01/01 00:50:17;;;;;;;257.20;104.43;;;0.50;99.90;;;;;;5017183;28;20383;-61
2021/01/01 00:52:43;;;;;;;260.25;106.13;;;0.40;99.90;;;;;;5019080;28;20046;-62
2021/01/01 00:55:09;;;;;;;237.63;94.28;;;0.40;99.90;;;;;;5017945;28;20069;-61
2021/01/01 00:57:35;;;;;;;243.38;95.38;;;0.40;99.90;;;;;;5020144;28;20494;-61
2021/01/01 01:00:03;;;;;;;225.27;91.07;;;0.40;99.90;;;;;;5017781;28;20029;-62
2021/01/01 01:02:28;;;;;;;235.57;92.65;;;0.40;99.90;;;;;;5012383;28;20034;-63
2021/01/01 01:04:54;;;;;;;233.70;87.75;;;0.40;99.90;;;;;;5019788;28;20033;-60
2021/01/01 01:07:19;;;;;;;203.32;84.82;;;0.40;99.90;;;;;;5017331;28;20041;-61
2021/01/01 01:09:45;;;;;;;203.90;82.22;;;0.30;99.90;;;;;;5016565;28;20058;-63
2021/01/01 01:12:10;;;;;;;194.20;76.43;;;0.30;99.90;;;;;;5018620;28;20076;-60
2021/01/01 01:14:36;;;;;;;204.45;80.50;;;0.30;99.90;;;;;;5016755;28;20348;-61
2021/01/01 01:17:02;;;;;;;183.80;73.93;;;0.30;99.90;;;;;;5020101;28;20043;-60
2021/01/01 01:19:28;;;;;;;186.55;75.90;;;0.30;99.90;;;;;;5010661;28;20041;-63
2021/01/01 01:21:53;;;;;;;189.13;73.90;;;0.30;99.90;;;;;;5018314;28;20437;-61
2021/01/01 01:24:19;;;;;;;180.68;73.85;;;0.30;99.90;;;;;;5022247;28;20507;-63
2021/01/01 01:26:45;;;;;;;193.48;75.00;;;0.30;99.90;;;;;;5021814;28;20044;-61
2021/01/01 01:29:11;;;;;;;200.07;78.93;;;0.30;99.90;;;;;;5020947;28;20084;-60
2021/01/01 01:31:38;;;;;;;206.93;79.40;;;0.30;99.90;;;;;;5022500;28;20025;-60
2021/01/01 01:34:04;;;;;;;209.43;80.10;;;0.30;99.90;;;;;;5020416;28;20076;-63
2021/01/01 01:36:30;;;;;;;193.40;74.75;;;0.20;99.90;;;;;;5023218;28;20037;-60
2021/01/01 01:38:55;;;;;;;214.48;83.05;;;0.20;99.90;;;;;;5020046;28;20053;-60
2021/01/01 01:41:21;;;;;;;187.18;74.82;;;0.20;99.90;;;;;;5022402;28;20049;-61
2021/01/01 01:43:46;;;;;;;202.77;78.40;;;0.20;99.90;;;;;;5020768;28;20486;-61
2021/01/01 01:46:12;;;;;;;204.80;78.38;;;0.20;99.90;;;;;;5021829;28;20042;-61
2021/01/01 01:48:39;;;;;;;173.40;70.07;;;0.20;99.90;;;;;;5021718;28;20033;-62
2021/01/01 01:51:09;;;;;;;208.48;77.93;;;0.20;99.90;;;;;;5020311;28;20048;-60
2021/01/01 01:53:43;;;;;;;196.25;73.30;;;0.20;99.90;;;;;;5022067;28;20037;-60
2021/01/01 01:56:10;;;;;;;176.90;70.05;;;0.20;99.90;;;;;;5021079;28;20049;-61
2021/01/01 01:58:37;;;;;;;165.30;65.80;;;0.20;99.90;;;;;;5020268;28;20057;-60
2021/01/01 02:01:03;;;;;;;159.63;62.92;;;0.20;99.90;;;;;;5019829;28;20033;-63
2021/01/01 02:03:30;;;;;;;167.18;64.70;;;0.20;99.90;;;;;;5022572;28;20118;-61
2021/01/01 02:05:57;;;;;;;161.77;62.80;;;0.20;99.90;;;;;;5015728;28;20026;-61
2021/01/01 02:08:22;;;;;;;171.25;64.00;;;0.20;99.90;;;;;;5022129;28;20025;-62
2021/01/01 02:10:51;;;;;;;168.35;63.72;;;0.20;99.90;;;;;;5020043;28;20026;-61
2021/01/01 02:13:17;;;;;;;149.55;62.15;;;0.20;99.90;;;;;;5020680;28;20052;-61
2021/01/01 02:15:43;;;;;;;159.40;63.58;;;0.20;99.90;;;;;;5020617;28;20038;-63
2021/01/01 02:18:09;;;;;;;166.45;63.08;;;0.20;99.90;;;;;;5020677;28;20044;-60
2021/01/01 02:20:35;;;;;;;162.95;63.33;;;0.10;99.90;;;;;;5021307;28;20044;-62
2021/01/01 02:23:02;;;;;;;159.20;61.05;;;0.10;99.90;;;;;;5018034;28;20395;-60
2021/01/01 02:25:29;;;;;;;158.55;62.20;;;0.10;99.90;;;;;;5022046;28;20034;-61
2021/01/01 02:27:54;;;;;;;155.00;58.78;;;0.10;99.90;;;;;;5019229;28;20129;-62
2021/01/01 02:30:20;;;;;;;148.45;56.53;;;0.10;99.90;;;;;;5021736;28;20109;-63
2021/01/01 02:32:46;;;;;;;142.23;56.47;;;0.10;99.90;;;;;;5018484;28;20088;-62
2021/01/01 02:35:12;;;;;;;138.00;54.88;;;0.10;99.90;;;;;;5020777;28;20486;-62
2021/01/01 02:37:37;;;;;;;126.60;51.83;;;0.10;99.90;;;;;;5020662;28;20041;-60
2021/01/01 02:40:06;;;;;;;139.20;54.03;;;0.10;99.90;;;;;;5019405;28;20380;-62
2021/01/01 02:42:32;;;;;;;148.05;58.28;;;0.00;99.90;;;;;;5019817;28;20041;-63
2021/01/01 02:44:57;;;;;;;151.85;58.90;;;0.00;99.90;;;;;;5018745;28;20552;-63
2021/01/01 02:47:23;;;;;;;171.27;66.53;;;0.00;99.90;;;;;;5022018;28;20506;-62
2021/01/01 02:49:49;;;;;;;206.27;76.97;;;0.10;99.90;;;;;;5018580;28;20124;-62
2021/01/01 02:52:14;;;;;;;212.75;76.15;;;0.10;99.90;;;;;;5021078;28;20041;-60
2021/01/01 02:54:40;;;;;;;206.48;76.70;;;0.20;99.90;;;;;;5019744;28;20078;-60
2021/01/01 02:57:05;;;;;;;213.00;78.65;;;0.20;99.90;;;;;;5018602;28;20045;-61
2021/01/01 02:59:31;;;;;;;192.60;73.40;;;0.30;99.90;;;;;;5017498;28;20030;-63
2021/01/01 03:01:56;;;;;;;197.68;73.53;;;0.30;99.90;;;;;;5021906;28;20033;-61
2021/01/01 03:04:22;;;;;;;193.07;71.10;;;0.40;99.90;;;;;;5017212;28;20048;-61
2021/01/01 03:06:47;;;;;;;196.60;73.05;;;0.40;99.90;;;;;;5020976;28;20052;-62
2021/01/01 03:09:13;;;;;;;181.23;71.43;;;0.40;99.90;;;;;;5019217;28;20072;-61
2021/01/01 03:11:39;;;;;;;180.85;69.38;;;0.40;99.90;;;;;;5019983;28;20394;-61
2021/01/01 03:14:04;;;;;;;193.43;69.30;;;0.40;99.90;;;;;;5020512;28;20450;-61
2021/01/01 03:16:30;;;;;;;182.52;69.30;;;0.40;99.90;;;;;;5018555;28;20470;-62
2021/01/01 03:18:55;;;;;;;184.23;69.60;;;0.50;99.90;;;;;;5020914;28;20536;-62
2021/01/01 03:21:21;;;;;;;176.75;70.18;;;0.50;99.90;;;;;;5017742;28;20045;-63
2021/01/01 03:23:47;;;;;;;192.57;70.40;;;0.50;99.90;;;;;;5021112;28;20036;-61
2021/01/01 03:26:13;;;;;;;190.38;70.35;;;0.60;99.90;;;;;;5019172;28;20060;-61
2021/01/01 03:28:39;;;;;;;188.95;67.35;;;0.70;99.90;;;;;;5019801;28;20279;-63
2021/01/01 03:31:05;;;;;;;190.77;72.63;;;0.70;99.90;;;;;;5019934;28;20037;-64
2021/01/01 03:33:30;;;;;;;193.70;72.35;;;0.70;99.90;;;;;;5019139;28;20101;-61
2021/01/01 03:35:56;;;;;;;197.27;71.28;;;0.80;99.90;;;;;;5020605;28;20064;-60
2021/01/01 03:38:22;;;;;;;194.77;68.20;;;0.80;99.90;;;;;;5018100;28;20037;-62
2021/01/01 03:40:48;;;;;;;185.65;71.60;;;0.80;99.90;;;;;;5021040;28;20033;-61
2021/01/01 03:43:14;;;;;;;190.20;70.30;;;0.90;99.90;;;;;;5018654;28;20038;-63
2021/01/01 03:45:40;;;;;;;189.13;68.22;;;0.90;99.90;;;;;;5019571;28;20124;-64
2021/01/01 03:48:08;;;;;;;180.52;68.47;;;0.90;99.90;;;;;;5020060;28;20049;-63
2021/01/01 03:50:34;;;;;;;175.95;65.38;;;1.00;99.90;;;;;;5019401;28;20057;-63
2021/01/01 03:52:59;;;;;;;178.13;67.38;;;1.00;99.90;;;;;;5019688;28;20053;-62
2021/01/01 03:55:26;;;;;;;193.27;69.50;;;1.00;99.90;;;;;;5018175;28;20034;-61
2021/01/01 03:57:52;;;;;;;162.07;62.15;;;1.00;99.90;;;;;;5020823;28;20045;-61
2021/01/01 04:00:17;;;;;;;157.82;61.10;;;1.00;99.90;;;;;;5016017;28;20144;-62
2021/01/01 04:02:43;;;;;;;157.30;62.25;;;1.00;99.90;;;;;;5020236;28;20513;-62
2021/01/01 04:05:09;;;;;;;174.55;64.78;;;1.00;99.90;;;;;;5018669;28;20095;-61
2021/01/01 04:07:35;;;;;;;205.00;77.28;;;0.90;99.90;;;;;;5021543;28;20041;-61
2021/01/01 04:10:00;;;;;;;206.20;81.20;;;0.90;99.90;;;;;;5018001;28;20034;-63
2021/01/01 04:12:26;;;;;;;200.13;78.53;;;0.80;99.90;;;;;;5020322;28;20025;-62
2021/01/01 04:14:51;;;;;;;202.25;79.78;;;0.80;99.90;;;;;;5016887;28;20045;-62
2021/01/01 04:17:17;;;;;;;209.63;84.50;;;0.80;99.90;;;;;;5020356;28;20036;-62
2021/01/01 04:19:42;;;;;;;217.80;85.10;;;0.80;99.90;;;;;;5017854;28;20113;-60
2021/01/01 04:22:09;;;;;;;221.32;87.90;;;0.80;99.90;;;;;;5057991;22;20041;-65
2021/01/01 04:24:34;;;;;;;210.45;82.40;;;0.80;99.90;;;;;;5037264;28;20103;-64
2021/01/01 04:27:00;;;;;;;215.02;86.68;;;0.80;99.90;;;;;;5039030;28;20049;-65
2021/01/01 04:29:25;;;;;;;212.52;82.80;;;0.90;99.90;;;;;;5037648;28;20500;-65
2021/01/01 04:31:51;;;;;;;199.95;82.72;;;0.90;99.90;;;;;;5024496;28;20032;-65
2021/01/01 04:34:16;;;;;;;209.13;79.57;;;0.90;99.90;;;;;;5017273;28;20029;-65
2021/01/01 04:36:42;;;;;;;210.38;81.15;;;0.90;99.90;;;;;;5020177;28;20045;-65
2021/01/01 04:39:08;;;;;;;216.15;87.75;;;1.00;99.90;;;;;;5016391;28;20091;-65
2021/01/01 04:41:35;;;;;;;214.45;84.78;;;1.00;99.90;;;;;;5018999;28;20072;-66
2021/01/01 04:44:03;;;;;;;201.85;81.60;;;1.00;99.90;;;;;;5018433;28;20106;-65
2021/01/01 04:46:29;;;;;;;190.60;75.13;;;0.90;99.90;;;;;;5014676;28;20096;-65
2021/01/01 04:48:55;;;;;;;197.25;76.13;;;1.00;99.90;;;;;;5019585;28;20416;-65
2021/01/01 04:51:21;;;;;;;192.50;73.75;;;1.00;99.90;;;;;;5016996;28;20110;-65
2021/01/01 04:53:47;;;;;;;179.68;72.80;;;1.00;99.90;;;;;;5019502;28;20449;-64
2021/01/01 04:56:13;;;;;;;172.07;66.88;;;1.00;99.90;;;;;;5017705;28;20044;-65
2021/01/01 04:58:39;;;;;;;169.60;65.00;;;1.00;99.90;;;;;;5023858;28;20129;-65
2021/01/01 05:01:05;;;;;;;156.30;59.70;;;1.10;99.90;;;;;;5021867;28;20037;-65
2021/01/01 05:03:31;;;;;;;158.43;62.17;;;1.10;99.90;;;;;;5021158;28;20478;-64
2021/01/01 05:05:57;;;;;;;153.95;60.40;;;1.10;99.90;;;;;;5022840;28;20406;-65
2021/01/01 05:08:23;;;;;;;151.27;60.10;;;1.10;99.90;;;;;;5021459;28;20022;-65
2021/01/01 05:10:50;;;;;;;141.20;54.25;;;1.10;99.90;;;;;;5023148;28;20095;-64
2021/01/01 05:13:20;;;;;;;139.32;54.08;;;1.10;99.90;;;;;;5019920;28;20030;-65
2021/01/01 05:15:48;;;;;;;136.82;52.60;;;1.10;99.90;;;;;;5017370;28;20030;-65
2021/01/01 05:18:17;;;;;;;139.80;52.88;;;1.20;99.90;;;;;;5016181;28;20046;-65
2021/01/01 05:20:44;;;;;;;129.38;49.38;;;1.20;99.90;;;;;;5023943;28;20038;-64
2021/01/01 05:23:30;;;;;;;123.30;48.03;;;1.20;99.90;;;;;;5019501;28;20030;-65
2021/01/01 05:26:15;;;;;;;123.47;45.90;;;1.30;99.90;;;;;;5019214;28;20056;-64
2021/01/01 05:28:49;;;;;;;129.02;47.35;;;1.30;99.90;;;;;;5020727;28;20038;-65
2021/01/01 05:31:25;;;;;;;120.40;45.05;;;1.20;99.90;;;;;;5016907;28;20099;-65
2021/01/01 05:34:10;;;;;;;112.35;45.13;;;1.30;99.90;;;;;;5017947;28;20040;-65
2021/01/01 05:36:38;;;;;;;102.97;41.53;;;1.30;99.90;;;;;;5019082;28;20033;-65
2021/01/01 05:39:12;;;;;;;108.03;42.17;;;1.30;99.90;;;;;;5022539;28;20125;-64
2021/01/01 05:41:52;;;;;;;96.30;39.20;;;1.30;99.90;;;;;;5018802;28;20065;-63
2021/01/01 05:44:20;;;;;;;88.57;37.67;;;1.30;99.90;;;;;;5017447;28;20494;-65
2021/01/01 05:47:04;;;;;;;89.65;35.15;;;1.30;99.90;;;;;;5022752;28;20040;-65
2021/01/01 05:49:33;;;;;;;86.93;33.50;;;1.40;99.90;;;;;;5020474;28;20037;-66
2021/01/01 05:52:09;;;;;;;91.47;34.58;;;1.40;99.90;;;;;;5021762;28;20084;-64
2021/01/01 05:54:40;;;;;;;84.07;31.95;;;1.40;99.90;;;;;;5022481;28;20434;-65
2021/01/01 05:57:06;;;;;;;;;;;1.40;99.90;;;;;;5019852;28;20650;-65
2021/01/01 05:59:38;;;;;;;67.45;26.33;;;1.40;99.90;;;;;;5020712;28;19917;-67
2021/01/01 06:02:05;;;;;;;77.32;29.80;;;1.40;99.90;;;;;;5019610;28;20033;-65
2021/01/01 06:04:31;;;;;;;75.32;27.88;;;1.40;99.90;;;;;;5021987;28;20064;-65
2021/01/01 06:07:00;;;;;;;67.32;25.95;;;1.30;99.90;;;;;;5021329;28;20394;-65
2021/01/01 06:09:28;;;;;;;55.85;23.00;;;1.40;99.90;;;;;;5018131;28;20435;-64
2021/01/01 06:11:57;;;;;;;62.67;24.55;;;1.40;99.90;;;;;;5020416;28;20112;-64
2021/01/01 06:14:33;;;;;;;63.15;24.30;;;1.30;99.90;;;;;;5021335;28;20096;-65
2021/01/01 06:17:19;;;;;;;60.13;23.90;;;1.40;99.90;;;;;;5019634;28;20045;-65
2021/01/01 06:19:49;;;;;;;54.25;21.65;;;1.40;99.90;;;;;;5015589;28;20036;-64
2021/01/01 06:22:23;;;;;;;54.65;21.58;;;1.40;99.90;;;;;;5015864;28;20045;-64
2021/01/01 06:25:04;;;;;;;55.65;22.65;;;1.40;99.90;;;;;;5020841;28;20119;-64
2021/01/01 06:27:31;;;;;;;50.25;19.88;;;1.30;99.90;;;;;;5021534;28;20106;-65
2021/01/01 06:30:02;;;;;;;46.08;18.45;;;1.30;99.90;;;;;;5020786;28;20038;-64
2021/01/01 06:32:31;;;;;;;53.53;18.30;;;1.30;99.90;;;;;;5020981;28;20494;-65
2021/01/01 06:35:11;;;;;;;52.08;18.83;;;1.30;99.90;;;;;;5019204;28;20121;-65
2021/01/01 06:37:39;;;;;;;45.67;17.42;;;1.30;99.90;;;;;;5018969;28;20122;-65
2021/01/01 06:40:27;;;;;;;39.72;17.42;;;1.30;99.90;;;;;;5021725;28;20069;-65
2021/01/01 06:43:03;;;;;;;44.63;16.38;;;1.30;99.90;;;;;;5018503;28;20099;-65
2021/01/01 06:45:45;;;;;;;43.80;16.70;;;1.30;99.90;;;;;;5020547;28;20041;-65
2021/01/01 06:48:12;;;;;;;39.25;16.08;;;1.30;99.90;;;;;;5015213;28;20030;-65
2021/01/01 06:50:42;;;;;;;36.67;14.68;;;1.30;99.90;;;;;;5022528;28;20048;-64
2021/01/01 06:53:16;;;;;;;33.90;14.75;;;1.30;99.90;;;;;;5014640;28;20517;-64
2021/01/01 06:55:46;;;;;;;37.05;15.25;;;1.30;99.90;;;;;;5015371;28;20041;-64
2021/01/01 06:58:23;;;;;;;40.33;14.70;;;1.30;99.90;;;;;;5015011;28;20045;-65
2021/01/01 07:00:48;;;;;;;37.85;15.38;;;1.30;99.90;;;;;;5017263;28;20029;-65
2021/01/01 07:03:26;;;;;;;35.92;13.40;;;1.30;99.90;;;;;;5021650;28;20030;-65
2021/01/01 07:06:17;;;;;;;36.28;13.60;;;1.30;99.90;;;;;;5020046;28;20045;-65
2021/01/01 07:08:46;;;;;;;30.75;12.98;;;1.30;99.90;;;;;;5015222;28;20064;-65
2021/01/01 07:11:18;;;;;;;28.05;11.07;;;1.30;99.90;;;;;;5020833;28;20052;-65
2021/01/01 07:13:44;;;;;;;33.22;12.48;;;1.30;99.90;;;;;;5018285;28;20117;-65
2021/01/01 07:16:11;;;;;;;30.05;12.10;;;1.30;99.90;;;;;;5021792;28;20506;-65
2021/01/01 07:18:37;;;;;;;29.65;12.05;;;1.40;99.90;;;;;;5013378;28;20034;-65
2021/01/01 07:21:07;;;;;;;26.80;10.25;;;1.40;99.90;;;;;;5019919;28;20548;-65
2021/01/01 07:23:33;;;;;;;24.83;10.52;;;1.40;99.90;;;;;;5018408;28;20449;-65
2021/01/01 07:25:59;;;;;;;23.73;9.35;;;1.40;99.90;;;;;;5020922;28;20439;-64
2021/01/01 07:28:27;;;;;;;24.55;9.88;;;1.40;99.90;;;;;;5017933;28;20037;-64
2021/01/01 07:30:53;;;;;;;22.35;9.25;;;1.50;99.90;;;;;;5017207;28;20368;-65
2021/01/01 07:33:29;;;;;;;22.65;8.00;;;1.50;99.90;;;;;;5018981;28;20037;-64
2021/01/01 07:35:59;;;;;;;24.73;9.02;;;1.50;99.90;;;;;;5018435;28;20185;-64
2021/01/01 07:38:26;;;;;;;17.77;7.88;;;1.50;99.90;;;;;;5019485;28;20041;-65
2021/01/01 07:40:53;;;;;;;20.98;8.90;;;1.60;99.90;;;;;;5019311;28;20519;-65
2021/01/01 07:43:18;;;;;;;19.92;7.15;;;1.60;99.90;;;;;;5020555;28;20042;-64
2021/01/01 07:45:44;;;;;;;18.67;8.32;;;1.70;99.90;;;;;;5018433;28;20494;-63
2021/01/01 07:48:10;;;;;;;14.27;6.18;;;1.60;99.90;;;;;;5021192;28;20059;-65
2021/01/01 07:50:37;;;;;;;19.30;7.30;;;1.70;99.90;;;;;;5013022;28;20038;-65
2021/01/01 07:53:08;;;;;;;19.33;7.97;;;1.70;99.90;;;;;;5036385;28;20076;-64
2021/01/01 07:55:34;;;;;;;14.85;6.18;;;1.70;99.90;;;;;;5016778;28;20436;-65
2021/01/01 07:58:10;;;;;;;15.63;6.13;;;1.70;99.90;;;;;;5020204;28;20409;-66
2021/01/01 08:00:37;;;;;;;14.73;6.13;;;1.80;99.90;;;;;;5014054;28;20037;-65
2021/01/01 08:03:04;;;;;;;18.23;6.30;;;1.80;99.90;;;;;;5020446;28;20128;-65
2021/01/01 08:05:30;;;;;;;15.38;5.05;;;1.80;99.90;;;;;;5017993;28;20038;-65
2021/01/01 08:08:28;;;;;;;13.13;6.25;;;1.80;99.90;;;;;;5019616;28;20496;-65
2021/01/01 08:10:56;;;;;;;13.10;5.43;;;1.80;99.90;;;;;;5018912;28;20041;-64
2021/01/01 08:13:30;;;;;;;13.65;4.50;;;1.80;99.90;;;;;;5019111;28;20076;-65
2021/01/01 08:16:15;;;;;;;13.25;5.57;;;1.80;99.90;;;;;;5019543;28;20060;-65
2021/01/01 08:18:41;;;;;;;10.77;4.70;;;1.80;99.90;;;;;;5017628;28;20038;-66
2021/01/01 08:21:07;;;;;;;13.32;4.30;;;1.80;99.90;;;;;;5020443;28;20041;-66
2021/01/01 08:23:56;;;;;;;11.60;4.72;;;1.80;99.90;;;;;;5017480;28;20038;-65
2021/01/01 08:26:22;;;;;;;11.05;4.70;;;1.80;99.90;;;;;;5017853;28;20044;-64
2021/01/01 08:28:51;;;;;;;10.70;4.30;;;1.80;99.90;;;;;;5019481;28;20405;-66
2021/01/01 08:31:23;;;;;;;13.30;5.85;;;1.80;99.90;;;;;;5014000;28;20443;-65
2021/01/01 08:33:53;;;;;;;9.40;4.30;;;1.90;99.90;;;;;;5019269;28;20445;-65
2021/01/01 08:36:19;;;;;;;10.50;3.90;;;1.90;99.90;;;;;;5018277;28;20045;-65
2021/01/01 08:38:44;;;;;;;15.05;5.00;;;1.90;99.90;;;;;;5019644;28;20022;-65
2021/01/01 08:41:19;;;;;;;13.35;4.70;;;1.90;99.90;;;;;;5015964;28;20040;-65
2021/01/01 08:43:45;;;;;;;8.95;3.92;;;2.00;99.90;;;;;;5017950;28;20067;-66
2021/01/01 08:46:15;;;;;;;7.00;3.58;;;2.00;99.90;;;;;;5017487;28;20122;-64
2021/01/01 08:48:40;;;;;;;9.73;4.53;;;2.00;99.90;;;;;;5020032;28;20033;-65
2021/01/01 08:51:06;;;;;;;9.35;3.72;;;2.10;99.90;;;;;;5015193;28;20029;-65
2021/01/01 08:53:40;;;;;;;9.82;4.10;;;2.10;99.90;;;;;;5019181;28;20448;-65
2021/01/01 08:56:07;;;;;;;10.98;4.15;;;2.20;99.90;;;;;;5016618;28;20053;-65
2021/01/01 08:58:33;;;;;;;8.52;3.42;;;2.20;99.90;;;;;;5020459;28;20374;-65
2021/01/01 09:01:14;;;;;;;10.18;4.43;;;2.30;99.90;;;;;;5017167;28;20037;-65
2021/01/01 09:03:41;;;;;;;9.35;3.72;;;2.30;99.90;;;;;;5015076;28;20041;-65
2021/01/01 09:06:17;;;;;;;11.25;4.32;;;2.30;99.90;;;;;;5020099;28;20252;-65
2021/01/01 09:08:43;;;;;;;9.23;3.63;;;2.40;99.90;;;;;;5017718;28;20509;-65
2021/01/01 09:11:22;;;;;;;10.15;4.05;;;2.40;99.90;;;;;;5019542;28;20042;-65
2021/01/01 09:14:02;;;;;;;8.98;4.05;;;2.50;99.90;;;;;;5018600;28;20038;-65
2021/01/01 09:16:27;;;;;;;8.52;3.50;;;2.50;99.90;;;;;;5016347;28;20037;-65
2021/01/01 09:18:53;;;;;;;9.40;3.95;;;2.50;99.90;;;;;;5019481;28;20112;-65
2021/01/01 09:21:19;;;;;;;16.33;4.50;;;2.60;99.90;;;;;;5016684;28;20038;-64
2021/01/01 09:23:53;;;;;;;11.95;3.22;;;2.60;99.90;;;;;;5017722;28;20044;-65
2021/01/01 09:26:23;;;;;;;9.27;3.92;;;2.60;99.90;;;;;;5018363;28;20029;-65
2021/01/01 09:28:58;;;;;;;8.40;3.70;;;2.60;99.90;;;;;;5018560;28;20073;-65
2021/01/01 09:31:23;;;;;;;13.50;3.28;;;2.70;99.90;;;;;;5015937;28;20033;-64
2021/01/01 09:34:06;;;;;;;9.30;3.90;;;2.70;99.90;;;;;;5018329;28;20034;-64
2021/01/01 09:36:36;;;;;;;10.13;3.97;;;2.80;99.90;;;;;;5016343;28;20025;-64
2021/01/01 09:39:06;;;;;;;8.23;3.70;;;2.90;99.90;;;;;;5013226;28;20054;-65
2021/01/01 09:41:32;;;;;;;7.95;3.97;;;2.90;99.90;;;;;;5013013;28;20558;-68
2021/01/01 09:43:57;;;;;;;10.07;3.80;;;2.90;99.90;;;;;;5023442;28;20244;-63
2021/01/01 09:46:23;;;;;;;8.57;4.13;;;2.80;99.90;;;;;;5021018;28;20414;-65
2021/01/01 09:48:48;;;;;;;8.82;3.50;;;2.90;99.90;;;;;;5021794;28;20026;-65
2021/01/01 09:51:15;;;;;;;8.32;3.50;;;2.90;99.90;;;;;;5021561;28;20040;-65
2021/01/01 09:53:40;;;;;;;6.50;3.60;;;2.90;99.90;;;;;;5020954;28;20479;-65
2021/01/01 09:56:06;;;;;;;8.70;2.88;;;2.90;99.90;;;;;;5023033;28;20036;-65
2021/01/01 09:58:32;;;;;;;6.03;3.13;;;2.90;99.90;;;;;;5018687;28;20407;-66
2021/01/01 10:00:57;;;;;;;11.90;3.50;;;2.90;99.90;;;;;;5023262;28;20827;-65
2021/01/01 10:03:23;;;;;;;8.77;3.45;;;2.90;99.90;;;;;;5019176;28;20062;-65
2021/01/01 10:05:48;;;;;;;6.63;3.42;;;3.00;99.90;;;;;;5020886;28;20034;-66
2021/01/01 10:08:15;;;;;;;9.05;3.08;;;3.00;99.90;;;;;;5021568;28;20045;-66
2021/01/01 10:10:43;;;;;;;9.48;3.55;;;2.90;99.90;;;;;;5020794;28;20581;-65
2021/01/01 10:13:09;;;;;;;7.68;3.40;;;2.90;99.90;;;;;;5022099;28;20478;-65
2021/01/01 10:15:34;;;;;;;8.52;3.80;;;2.90;99.90;;;;;;5020251;28;20036;-65
2021/01/01 10:18:00;;;;;;;7.82;3.42;;;2.90;99.90;;;;;;5021463;28;20033;-64
2021/01/01 10:20:25;;;;;;;8.45;3.50;;;2.90;99.90;;;;;;5020150;28;20041;-64
2021/01/01 10:22:51;;;;;;;7.60;3.55;;;2.90;99.90;;;;;;5020036;28;20046;-63
2021/01/01 10:25:16;;;;;;;6.90;3.33;;;2.80;99.90;;;;;;5020556;28;20068;-63
2021/01/01 10:27:42;;;;;;;8.57;3.53;;;2.80;99.90;;;;;;5019396;28;20159;-63
2021/01/01 10:30:08;;;;;;;8.40;2.90;;;2.80;99.90;;;;;;5020462;28;20041;-63
2021/01/01 10:32:33;;;;;;;8.32;3.30;;;2.80;99.90;;;;;;5019569;28;20034;-63
2021/01/01 10:34:59;;;;;;;8.40;3.20;;;2.90;99.90;;;;;;5022383;28;20371;-63
2021/01/01 10:37:24;;;;;;;11.40;3.60;;;2.90;99.90;;;;;;5019188;28;20049;-63
2021/01/01 10:39:50;;;;;;;11.98;3.50;;;3.10;99.90;;;;;;5019920;28;20077;-63
2021/01/01 10:42:15;;;;;;;8.15;3.25;;;3.20;99.90;;;;;;5020128;28;20041;-63
2021/01/01 10:44:41;;;;;;;7.90;3.45;;;3.30;99.90;;;;;;5019376;28;20093;-63
2021/01/01 10:47:06;;;;;;;6.00;2.58;;;3.40;99.90;;;;;;5021507;28;20040;-64
2021/01/01 10:49:34;;;;;;;7.75;2.90;;;3.50;99.90;;;;;;5019623;28;20050;-63
2021/01/01 10:52:00;;;;;;;6.25;2.85;;;3.60;99.90;;;;;;5022160;28;20029;-63
2021/01/01 10:54:26;;;;;;;9.35;3.00;;;3.70;99.90;;;;;;5016969;28;20042;-63
2021/01/01 10:56:51;;;;;;;8.05;3.03;;;3.70;99.90;;;;;;5021828;28;20041;-64
2021/01/01 10:59:17;;;;;;;9.25;3.30;;;3.80;99.90;;;;;;5019562;28;20423;-66
2021/01/01 11:01:43;;;;;;;8.82;2.72;;;3.90;99.90;;;;;;5021018;28;20022;-63
2021/01/01 11:04:08;;;;;;;7.53;2.97;;;3.90;99.90;;;;;;5020736;28;20030;-66
2021/01/01 11:06:39;;;;;;;8.48;3.25;;;3.90;99.90;;;;;;5019687;28;20496;-64
2021/01/01 11:09:05;;;;;;;8.63;3.08;;;4.00;99.90;;;;;;5020970;28;20532;-63
2021/01/01 11:11:31;;;;;;;6.97;3.60;;;4.00;99.90;;;;;;5018761;28;20026;-63
2021/01/01 12:25:23;;;;;;;10.30;4.40;;;4.90;99.90;;;;;;5013982;28;20096;-63
2021/01/01 12:27:50;;;;;;;12.75;4.45;;;4.90;99.90;;;;;;5016040;28;20525;-62
2021/01/01 12:30:17;;;;;;;11.18;4.15;;;4.90;99.90;;;;;;5020753;28;20171;-63
2021/01/01 12:32:43;;;;;;;15.05;4.45;;;4.90;99.90;;;;;;5016705;28;20394;-63
2021/01/01 12:35:10;;;;;;;7.57;3.83;;;4.80;99.90;;;;;;5019887;28;20325;-62
2021/01/01 12:37:37;;;;;;;15.38;4.85;;;4.80;99.90;;;;;;5019093;28;20044;-63
2021/01/01 12:40:05;;;;;;;11.35;4.50;;;4.80;99.90;;;;;;5019020;28;20084;-62
2021/01/01 12:42:30;;;;;;;8.95;3.75;;;4.80;99.90;;;;;;5019577;28;20037;-64
2021/01/01 12:44:56;;;;;;;13.88;4.20;;;4.90;99.90;;;;;;5016238;28;20056;-62
2021/01/01 12:47:21;;;;;;;7.63;3.70;;;5.00;99.90;;;;;;5017281;28;20045;-62
2021/01/01 12:49:47;;;;;;;13.57;4.03;;;5.10;99.90;;;;;;5020862;28;20106;-63
2021/01/01 12:52:13;;;;;;;8.45;3.75;;;5.10;99.90;;;;;;5018059;28;20048;-62
2021/01/01 12:54:39;;;;;;;13.27;4.38;;;5.20;99.90;;;;;;5019643;28;20128;-63
2021/01/01 12:57:05;;;;;;;7.60;3.58;;;5.30;99.90;;;;;;5018440;28;20413;-63
2021/01/01 12:59:31;;;;;;;11.30;4.32;;;5.30;99.90;;;;;;5018340;28;20030;-62
2021/01/01 13:01:56;;;;;;;15.50;4.15;;;5.40;99.90;;;;;;5018303;28;20038;-63
2021/01/01 13:04:22;;;;;;;10.73;4.13;;;5.40;99.90;;;;;;5017270;28;20457;-62
2021/01/01 13:06:47;;;;;;;14.50;3.88;;;5.50;99.90;;;;;;5021130;28;20033;-64
2021/01/01 13:09:13;;;;;;;10.57;4.53;;;5.50;99.90;;;;;;5017188;28;20046;-62
2021/01/01 13:11:42;;;;;;;6.10;2.90;;;5.60;99.90;;;;;;5018439;28;20041;-63
2021/01/01 13:14:08;;;;;;;9.77;3.45;;;5.60;99.90;;;;;;5017934;28;20042;-63
2021/01/01 13:16:34;;;;;;;9.77;3.60;;;5.60;99.90;;;;;;5019014;28;20045;-63
2021/01/01 13:18:59;;;;;;;8.55;3.20;;;5.70;99.90;;;;;;5021234;28;20385;-63
2021/01/01 13:21:30;;;;;;;12.88;4.05;;;5.70;99.90;;;;;;5021364;28;20121;-63
2021/01/01 13:23:56;;;;;;;;;;;5.70;99.90;;;;;;5023923;28;20444;-62
2021/01/01 13:26:24;;;;;;;9.15;3.45;;;5.80;99.90;;;;;;5025429;28;19913;-62
2021/01/01 13:28:50;;;;;;;10.10;4.63;;;5.90;99.90;;;;;;5021238;28;20034;-63
2021/01/01 13:31:15;;;;;;;10.43;3.50;;;5.90;99.90;;;;;;5024435;28;20124;-63
2021/01/01 13:33:42;;;;;;;8.57;3.15;;;5.90;99.90;;;;;;5021288;28;20025;-63
2021/01/01 13:36:18;;;;;;;11.52;3.08;;;6.00;99.90;;;;;;5023120;28;20048;-64
2021/01/01 13:38:45;;;;;;;6.65;2.67;;;6.10;99.90;;;;;;5019338;28;20053;-62
2021/01/01 13:41:13;;;;;;;5.47;2.13;;;6.10;99.90;;;;;;5023399;28;20375;-63
2021/01/01 13:43:40;;;;;;;4.88;2.03;;;6.10;99.90;;;;;;5021427;28;20743;-63
2021/01/01 13:46:07;;;;;;;2.90;1.30;;;6.10;99.90;;;;;;5022694;28;20041;-63
2021/01/01 13:48:34;;;;;;;2.92;1.27;;;6.10;99.90;;;;;;5020975;28;20029;-63
2021/01/01 13:50:59;;;;;;;3.70;1.05;;;6.10;99.90;;;;;;5018065;28;20133;-63
2021/01/01 13:53:25;;;;;;;3.08;1.85;;;6.10;99.90;;;;;;5023225;28;20156;-63